EAG5508 SBGR-SBRF
Flight info
| Callsign | EAG5508 |
|---|---|
| Flight time | N/A |
| Altitude | 41000 |
| Route | VUMEV UZ14 AKPAS DCT ANBEX |
| Aircraft | A359/H-SDE2E3GHIJ3J4J5LM1ORWXY/LB1D1 |
Departure
| Time | 2026-05-07 18:04 |
|---|---|
| Airport | São Paulo/Guarulhos–Governor André Franco Montoro International Airport (SBGR) |
Arrival
| Time | N/A |
|---|---|
| Airport | Recife/Guararapes - Gilberto Freyre International Airport (SBRF) |
| Time | Latitude | Longitude | Altitude | Speed | Heading |
|---|---|---|---|---|---|
| 2026-05-07 17:28 | -23.42834 | -46.47392 | 2474 ft | 0 kts | 72° |
| 2026-05-07 17:56 | -23.42838 | -46.47404 | 2478 ft | 4 kts | 72° |
| 2026-05-07 17:56 | -23.42846 | -46.47432 | 2476 ft | 4 kts | 72° |
| 2026-05-07 17:56 | -23.42853 | -46.47459 | 2477 ft | 3 kts | 73° |
| 2026-05-07 17:57 | -23.42857 | -46.47483 | 2476 ft | 4 kts | 116° |
| 2026-05-07 17:57 | -23.42848 | -46.47494 | 2476 ft | 4 kts | 162° |
| 2026-05-07 17:57 | -23.42827 | -46.47500 | 2474 ft | 0 kts | 165° |
| 2026-05-07 17:59 | -23.42850 | -46.47493 | 2477 ft | 8 kts | 165° |
| 2026-05-07 18:00 | -23.42912 | -46.47474 | 2477 ft | 10 kts | 162° |
| 2026-05-07 18:00 | -23.43003 | -46.47460 | 2474 ft | 14 kts | 207° |
| 2026-05-07 18:00 | -23.43043 | -46.47552 | 2475 ft | 14 kts | 253° |
| 2026-05-07 18:00 | -23.43073 | -46.47662 | 2477 ft | 16 kts | 253° |
| 2026-05-07 18:01 | -23.43104 | -46.47779 | 2475 ft | 16 kts | 253° |
| 2026-05-07 18:01 | -23.43138 | -46.47902 | 2475 ft | 17 kts | 253° |
| 2026-05-07 18:01 | -23.43173 | -46.48031 | 2477 ft | 18 kts | 253° |
| 2026-05-07 18:01 | -23.43209 | -46.48165 | 2475 ft | 19 kts | 253° |
| 2026-05-07 18:02 | -23.43306 | -46.48356 | 2476 ft | 12 kts | 187° |
| 2026-05-07 18:02 | -23.43388 | -46.48335 | 2476 ft | 12 kts | 149° |
| 2026-05-07 18:02 | -23.43406 | -46.48251 | 2476 ft | 12 kts | 82° |
| 2026-05-07 18:03 | -23.43397 | -46.48219 | 2476 ft | 0 kts | 74° |
| 2026-05-07 18:03 | -23.43391 | -46.48195 | 2476 ft | 22 kts | 74° |
| 2026-05-07 18:03 | -23.43284 | -46.47795 | 2476 ft | 86 kts | 74° |
| 2026-05-07 18:03 | -23.43060 | -46.46967 | 2478 ft | 140 kts | 73° |
| 2026-05-07 18:04 | -23.42755 | -46.45806 | 2685 ft | 168 kts | 71° |
| 2026-05-07 18:04 | -23.42459 | -46.44623 | 3494 ft | 160 kts | 68° |
| 2026-05-07 18:04 | -23.42091 | -46.43414 | 3861 ft | 181 kts | 66° |
| 2026-05-07 18:04 | -23.41652 | -46.42030 | 4065 ft | 210 kts | 67° |
| 2026-05-07 18:05 | -23.41166 | -46.40424 | 4242 ft | 236 kts | 68° |
| 2026-05-07 18:05 | -23.40650 | -46.38653 | 4631 ft | 253 kts | 69° |
| 2026-05-07 18:05 | -23.40095 | -46.36781 | 5093 ft | 267 kts | 66° |
| 2026-05-07 18:05 | -23.39248 | -46.34975 | 5788 ft | 267 kts | 55° |
| 2026-05-07 18:06 | -23.38268 | -46.33271 | 6652 ft | 267 kts | 54° |
| 2026-05-07 18:06 | -23.37258 | -46.31545 | 7336 ft | 275 kts | 54° |
| 2026-05-07 18:06 | -23.36230 | -46.29779 | 8168 ft | 277 kts | 54° |
| 2026-05-07 18:06 | -23.35197 | -46.28001 | 9038 ft | 279 kts | 54° |
| 2026-05-07 18:07 | -23.34168 | -46.26230 | 9891 ft | 282 kts | 54° |
| 2026-05-07 18:07 | -23.33107 | -46.24401 | 10486 ft | 294 kts | 54° |
| 2026-05-07 18:07 | -23.31976 | -46.22455 | 10807 ft | 315 kts | 55° |
| 2026-05-07 18:07 | -23.30770 | -46.20381 | 11103 ft | 334 kts | 55° |
| 2026-05-07 18:08 | -23.29507 | -46.18204 | 11543 ft | 345 kts | 56° |
| 2026-05-07 18:08 | -23.28217 | -46.15979 | 12140 ft | 350 kts | 56° |
| 2026-05-07 18:08 | -23.26911 | -46.13726 | 12790 ft | 354 kts | 56° |
| 2026-05-07 18:08 | -23.25590 | -46.11450 | 13368 ft | 358 kts | 57° |
| 2026-05-07 18:09 | -23.24257 | -46.09155 | 14012 ft | 360 kts | 57° |
| 2026-05-07 18:09 | -23.22922 | -46.06874 | 14513 ft | 364 kts | 56° |
| 2026-05-07 18:09 | -23.21301 | -46.04744 | 14967 ft | 369 kts | 42° |
| 2026-05-07 18:09 | -23.19161 | -46.03221 | 15552 ft | 370 kts | 25° |
| 2026-05-07 18:10 | -23.16751 | -46.02194 | 16051 ft | 375 kts | 20° |
| 2026-05-07 18:10 | -23.14274 | -46.01261 | 16598 ft | 378 kts | 19° |
| 2026-05-07 18:10 | -23.11726 | -46.00546 | 17194 ft | 380 kts | 9° |
| 2026-05-07 18:10 | -23.09091 | -46.00169 | 17651 ft | 386 kts | 6° |
| 2026-05-07 18:11 | -23.06409 | -45.99856 | 18180 ft | 389 kts | 6° |
| 2026-05-07 18:11 | -23.04625 | -45.99650 | 18541 ft | 390 kts | 6° |
| 2026-05-07 18:11 | -23.01031 | -45.99227 | 19121 ft | 396 kts | 6° |
| 2026-05-07 18:11 | -22.98270 | -45.98897 | 19531 ft | 401 kts | 5° |
| 2026-05-07 18:12 | -22.95484 | -45.98560 | 20024 ft | 404 kts | 5° |
| 2026-05-07 18:12 | -22.92678 | -45.98214 | 20489 ft | 409 kts | 6° |
| 2026-05-07 18:12 | -22.89861 | -45.97615 | 20928 ft | 416 kts | 14° |
| 2026-05-07 18:12 | -22.87155 | -45.96448 | 21350 ft | 424 kts | 26° |
| 2026-05-07 18:13 | -22.84595 | -45.94815 | 21758 ft | 430 kts | 31° |
| 2026-05-07 18:13 | -22.82091 | -45.92999 | 22188 ft | 436 kts | 32° |
| 2026-05-07 18:13 | -22.79623 | -45.91109 | 22546 ft | 443 kts | 33° |
| 2026-05-07 18:13 | -22.77119 | -45.89157 | 23088 ft | 445 kts | 33° |
| 2026-05-07 18:14 | -22.74583 | -45.87186 | 23476 ft | 451 kts | 33° |
| 2026-05-07 18:14 | -22.72016 | -45.85212 | 23955 ft | 453 kts | 33° |
| 2026-05-07 18:14 | -22.69431 | -45.83243 | 24354 ft | 457 kts | 33° |
| 2026-05-07 18:14 | -22.66822 | -45.81266 | 24912 ft | 456 kts | 33° |
| 2026-05-07 18:15 | -22.64267 | -45.79301 | 25872 ft | 443 kts | 33° |
| 2026-05-07 18:15 | -22.61834 | -45.77368 | 27051 ft | 425 kts | 34° |
| 2026-05-07 18:15 | -22.59557 | -45.75473 | 28006 ft | 415 kts | 36° |
| 2026-05-07 18:15 | -22.58403 | -45.74487 | 28210 ft | 418 kts | 36° |
| 2026-05-07 18:16 | -22.56778 | -45.73080 | 27989 ft | 434 kts | 39° |
| 2026-05-07 18:17 | -22.54362 | -45.70953 | 27384 ft | 463 kts | 37° |
| 2026-05-07 18:17 | -22.52596 | -45.69372 | 26764 ft | 487 kts | 37° |
| 2026-05-07 18:18 | -22.51739 | -45.68638 | 26702 ft | 493 kts | 37° |
| 2026-05-07 18:18 | -23.42834 | -46.47392 | 26702 ft | 4 kts | 72° |